• Join FlightAware (Why Join?)
  • Login
  • US Flag 
10:21AM EDT


 

Airport Tracker/Info


-or-


 

Live Flight TrackerFlight Track Log ✈ DAL268 ✈ 19-May-2013 ✈ KATL - KJFK

Flight Track Log - Related Links

Times and Time Zones

All times are in EDT time to prevent confusion due to time zone crossing. See the DAL268 flight status page for this flight to view local times or setup timezone preferences in your user account.

Time Position Orientation Groundspeed Altitude Reporting Facility
EDT Latitude Longitude Course Direction KTS MPH feet Rate Location/Type
07:56PM 33.6331 -84.3508 64° Northeast 446 513 2,700  Level Atlanta Center
07:57PM 33.6333 -84.2608 90° East 371 427 4,500 1,980 Climbing Atlanta Center
07:58PM 33.6333 -84.2333 90° East 271 312 5,300 2,460 Climbing Atlanta TRACON
07:59PM 33.6333 -84.1500 90° East 282 325 7,700 2,280 Climbing Atlanta TRACON
07:59PM 33.6336 -84.0711 90° East 295 339 9,200 1,800 Climbing Atlanta Center
08:00PM 33.6419 -83.9739 84° East 300 345 10,800 1,260 Climbing Atlanta Center
08:01PM 33.6481 -83.8592 86° East 326 375 11,800 1,440 Climbing Atlanta Center
08:02PM 33.6587 -83.6121 64° Northeast  Level FlightAware Approximate
08:02PM 33.6561 -83.7244 86° East 378 435 13,700  Level Atlanta Center
08:03PM 33.6767 -83.5944 79° East 397 457 15,900 1,800 Climbing Atlanta Center
08:04PM 33.7261 -83.4717 64° Northeast 397 457 17,400 1,200 Climbing Atlanta Center
08:05PM 33.7819 -83.3414 63° Northeast 416 479 18,300 1,440 Climbing Atlanta Center
08:06PM 33.8353 -83.2061 65° Northeast 439 505 20,300 1,680 Climbing Atlanta Center
08:07PM 33.8928 -83.0678 63° Northeast 452 520 21,700 1,260 Climbing Atlanta Center
08:08PM 33.9478 -82.9244 65° Northeast 460 529 22,900 1,320 Climbing Atlanta Center
08:09PM 34.0047 -82.7783 65° Northeast 471 542 24,400 1,500 Climbing Atlanta Center
08:10PM 34.0578 -82.6472 64° Northeast 471 542 25,900 1,320 Climbing Atlanta Center
08:11PM 34.1122 -82.5033 65° Northeast 465 535 27,100 1,380 Climbing Atlanta Center
08:12PM 34.1769 -82.3464 63° Northeast 465 535 28,700 1,440 Climbing Atlanta Center
08:13PM 34.2314 -82.2047 65° Northeast 465 535 30,000 1,080 Climbing Atlanta Center
08:14PM 34.2919 -82.0675 62° Northeast 465 535 30,900 480 Climbing Atlanta Center
08:15PM 34.3606 -81.9325 58° Northeast 465 535 31,000  Climbing Atlanta Center
08:16PM 34.4272 -81.8000 59° Northeast 465 535 31,000  Level Atlanta Center
08:17PM 34.4953 -81.6594 60° Northeast 465 535 31,000  Level Atlanta Center
08:18PM 34.5636 -81.5264 58° Northeast 470 541 31,000  Level Atlanta Center
08:19PM 34.6278 -81.3908 60° Northeast 470 541 31,000  Level Atlanta Center
08:20PM 34.6897 -81.2700 58° Northeast 470 541 31,000  Level Atlanta Center
08:21PM 34.7556 -81.1389 59° Northeast 464 534 31,000  Level Atlanta Center
08:22PM 34.8211 -81.0025 60° Northeast 464 534 31,000  Level Atlanta Center
08:23PM 34.8864 -80.8661 60° Northeast 465 535 31,000  Level Atlanta Center
08:24PM 34.9497 -80.7317 60° Northeast 465 535 31,000  Level Atlanta Center
08:25PM 35.0169 -80.5972 59° Northeast 465 535 31,000  Level Atlanta Center
08:26PM 35.0900 -80.4494 59° Northeast 459 528 31,000  Level Atlanta Center
08:29PM 35.2369 -80.1389 60° Northeast 452 520 31,000  Level Washington Center
08:30PM 35.2958 -80.0175 59° Northeast 452 520 31,000  Level Washington Center
08:31PM 35.3456 -79.8597 69° East 452 520 31,000  Level Washington Center
08:32PM 35.3903 -79.7092 70° East 452 520 31,000  Level Washington Center
08:33PM 35.4328 -79.5636 70° East 452 520 31,000  Level Washington Center
08:34PM 35.4864 -79.3981 68° East 465 535 31,000  Level Washington Center
08:35PM 35.5258 -79.2644 70° East 465 535 31,000  Level Washington Center
08:36PM 35.5747 -79.0983 70° East 465 535 31,000  Level Washington Center
08:37PM 35.6119 -78.9669 71° East 460 529 31,000  Level Washington Center
08:38PM 35.6575 -78.8233 69° East 460 529 31,000  Level Washington Center
08:39PM 35.7011 -78.6767 70° East 460 529 31,000  Level Washington Center
08:40PM 35.7467 -78.5275 69° East 460 529 31,000  Level Washington Center
08:41PM 35.7878 -78.3778 71° East 460 529 31,000  Level Washington Center
08:42PM 35.8308 -78.2283 70° East 460 529 31,000  Level Washington Center
08:43PM 35.8736 -78.0783 71° East 460 529 31,000  Level Washington Center
08:44PM 35.9142 -77.9336 71° East 455 524 31,000  Level Washington Center
08:45PM 35.9567 -77.7833 71° East 455 524 31,000  Level Washington Center
08:46PM 36.0153 -77.6489 62° Northeast 455 524 31,000  Level Washington Center
08:47PM 36.0903 -77.5250 53° Northeast 445 512 31,000  Level Washington Center
08:48PM 36.1633 -77.4033 53° Northeast 445 512 31,000  Level Washington Center
08:49PM 36.2464 -77.2867 49° Northeast 445 512 31,000  Level Washington Center
08:50PM 36.3414 -77.1908 39° Northeast 440 506 31,000  Level Washington Center
08:51PM 36.4386 -77.0947 38° Northeast 440 506 31,000  Level Washington Center
08:52PM 36.5358 -76.9983 39° Northeast 440 506 31,000  Level Washington Center
08:53PM 36.6331 -76.9017 39° Northeast 440 506 31,000  Level Washington Center
08:54PM 36.7300 -76.8072 38° Northeast 440 506 31,000  Level Washington Center
08:55PM 36.8247 -76.7025 41° Northeast 446 513 31,000  Level Washington Center
08:56PM 36.8533 -76.5342 78° East 429 494 31,000  Level Washington Center
08:57PM 36.8461 -76.3758 93° East 421 484 31,000  Level Washington Center
08:58PM 36.8367 -76.2172 94° East 442 509 31,000  Level Washington Center
08:59PM 36.8311 -76.0589 92° East 442 509 31,000  Level Washington Center
09:00PM 36.8419 -75.9008 85° East 449 517 31,000 -60 Level Washington Center
09:01PM 36.9297 -75.7817 47° Northeast 430 495 30,900  Descending Washington Center
09:02PM 37.0447 -75.7350 18° North 405 466 31,000  Climbing Washington Center
09:03PM 37.1656 -75.7039 12° North 410 472 31,000  Level Washington Center
09:04PM 37.2847 -75.6728 12° North 422 486 31,000  Level Washington Center
09:05PM 37.4056 -75.6414 12° North 429 494 31,000  Level Washington Center
09:06PM 37.5244 -75.6103 12° North 434 499 31,000  Level Washington Center
09:07PM 37.6433 -75.5761 13° North 434 499 31,000  Level Washington Center
09:08PM 37.7622 -75.5472 11° North 434 499 31,000  Level Washington Center
09:09PM 37.8833 -75.5128 13° North 429 494 31,000  Level Washington Center
09:10PM 38.0019 -75.4836 11° North 429 494 31,000  Level Washington Center
09:11PM 38.1189 -75.4386 17° North 429 494 31,000 -60 Level Washington Center
09:12PM 38.2272 -75.3669 27° Northeast 429 494 30,900  Descending Washington Center
09:13PM 38.3228 -75.3033 28° Northeast 429 494 31,000  Climbing Washington Center
09:14PM 38.4311 -75.2314 27° Northeast 434 499 30,900  Descending Washington Center
09:15PM 38.5414 -75.1589 27° Northeast 434 499 31,000  Climbing Washington Center
09:16PM 38.6453 -75.0919 27° Northeast 429 494 31,000  Level Washington Center
09:17PM 38.7556 -75.0219 26° Northeast 429 494 31,000  Level Washington Center
09:18PM 38.8636 -74.9544 26° Northeast 429 494 31,000 -60 Level Washington Center
09:19PM 38.9736 -74.8842 26° Northeast 429 494 30,900 -720 Descending Washington Center
09:20PM 39.0817 -74.8108 28° Northeast 429 494 29,600 -2,040 Descending Washington Center
09:21PM 39.1808 -74.7133 37° Northeast 435 501 26,900 -2,520 Descending Washington Center
09:22PM 39.3144 -74.5678 40° Northeast 449 517 23,800 -2,400 Descending New York Center
09:23PM 39.4053 -74.4678 40° Northeast 435 501 21,400 -2,340 Descending New York Center
09:24PM 39.4831 -74.3806 41° Northeast 418 481 19,200 -1,740 Descending New York Center
09:25PM 39.5692 -74.2881 40° Northeast 402 463 18,000 -1,020 Descending New York Center
09:26PM 39.6619 -74.1847 41° Northeast 396 456 17,200 -1,560 Descending New York Center
09:27PM 39.7436 -74.0969 40° Northeast 390 449 15,000 -2,100 Descending New York Center
09:28PM 39.8231 -74.0117 39° Northeast 390 449 13,000 -2,040 Descending New York Center
09:29PM 39.9000 -73.9475 33° Northeast 371 427 11,000 -1,020 Descending New York Center
09:30PM 39.9850 -73.8864 29° Northeast 354 407 11,000  Level New York Center
09:31PM 40.0658 -73.8275 29° Northeast 310 357 11,000 -480 Level New York Center
09:32PM 40.1381 -73.7711 31° Northeast 303 349 10,100 -1,320 Descending New York Center
09:33PM 40.2081 -73.7197 29° Northeast 295 339 8,400 -1,560 Descending New York Center
09:33PM 40.2333 -73.7000 31° Northeast 296 341 8,100 -240 Descending New York TRACON
09:34PM 40.3000 -73.6500 30° Northeast 294 338 8,100 -120 Level New York TRACON
09:35PM 40.3506 -73.6114 30° Northeast 295 339 7,900 -120 Descending New York Center
09:35PM 40.3833 -73.6000 15° North 295 339 8,000 60 Climbing New York TRACON
09:36PM 40.4500 -73.5500 30° Northeast 294 338 8,000  Level New York TRACON
09:37PM 40.5167 -73.5000 30° Northeast 291 335 8,100 -660 Climbing New York TRACON
09:38PM 40.6000 -73.4500 24° Northeast 286 329 6,700 -1,500 Descending New York TRACON
09:39PM 40.6667 -73.4167 21° North 280 322 5,200 -1,140 Descending New York TRACON
09:40PM 40.7333 -73.4500 339° North 232 267 4,400 -900 Descending New York TRACON
09:41PM 40.7667 -73.5000 311° West 205 236 3,500 -1,140 Descending New York TRACON
09:42PM 40.8000 -73.5667 303° West 182 209 2,300 -780 Descending New York TRACON
09:43PM 40.7833 -73.6167 246° West 171 197 2,000 -180 Descending New York TRACON
09:44PM 40.7667 -73.6667 246° West 157 181 2,000  Level New York TRACON
09:45PM 40.7333 -73.6833 201° Southwest 156 180 2,000 -420 Level New York TRACON
09:46PM 40.7000 -73.7167 217° Southwest 138 159 1,200 -840 Descending New York TRACON
09:47PM 40.6500 -73.7500 207° Southwest 148 170 400 -840 Descending New York TRACON
09:49PM 40.6333 -73.7667 217° Southwest  Level FlightAware Approximate
09:56PM 40.6398 -73.7789 217° Southwest  Level Estimated
09:57PM 40.6398 -73.7789 217° Southwest  Level Estimated